createdAt,value
2023-12-19T00:01:23.519Z,40.58
2023-12-19T00:03:51.956Z,40.69
2023-12-19T00:06:20.252Z,40.74
2023-12-19T00:08:48.359Z,40.59
2023-12-19T00:11:16.632Z,40.71
2023-12-19T00:13:44.946Z,40.46
2023-12-19T00:16:14.657Z,40.64
2023-12-19T00:18:43.005Z,40.48
2023-12-19T00:21:11.120Z,40.53
2023-12-19T00:23:39.391Z,40.58
2023-12-19T00:26:07.645Z,40.63
2023-12-19T00:28:35.842Z,40.70
2023-12-19T00:31:04.202Z,40.63
2023-12-19T00:33:34.888Z,40.73
2023-12-19T00:36:03.191Z,40.69
2023-12-19T00:38:31.394Z,40.68
2023-12-19T00:40:59.644Z,40.67
2023-12-19T00:43:27.736Z,40.65
2023-12-19T00:45:55.869Z,40.60
2023-12-19T00:48:25.198Z,40.63
2023-12-19T00:50:54.772Z,40.77
2023-12-19T00:53:22.847Z,40.69
2023-12-19T00:55:50.946Z,40.65
2023-12-19T00:58:19.030Z,40.71
2023-12-19T01:00:47.309Z,40.80
2023-12-19T01:03:16.155Z,40.86
2023-12-19T01:05:44.871Z,40.64
2023-12-19T01:08:14.524Z,40.85
2023-12-19T01:10:42.782Z,40.87
2023-12-19T01:13:11.011Z,40.71
2023-12-19T01:15:39.192Z,40.65
2023-12-19T01:18:07.536Z,40.65
2023-12-19T01:20:35.694Z,40.68
2023-12-19T01:23:03.945Z,40.73
2023-12-19T01:25:33.588Z,40.60
2023-12-19T01:28:10.855Z,40.58
2023-12-19T01:30:40.476Z,40.86
2023-12-19T01:33:09.586Z,40.71
2023-12-19T01:35:37.904Z,40.77
2023-12-19T01:38:06.122Z,40.75
2023-12-19T01:40:42.592Z,40.86
2023-12-19T01:43:19.243Z,40.95
2023-12-19T01:45:47.551Z,40.79
2023-12-19T01:48:15.990Z,40.80
2023-12-19T01:50:44.163Z,40.79
2023-12-19T01:53:12.305Z,40.89
2023-12-19T01:55:40.708Z,40.86
2023-12-19T01:58:10.322Z,40.97
2023-12-19T02:00:38.687Z,41.00
2023-12-19T02:03:07.330Z,40.96
2023-12-19T02:05:35.565Z,40.77
2023-12-19T02:08:03.783Z,40.91
2023-12-19T02:10:32.915Z,41.01
2023-12-19T02:13:01.623Z,40.81
2023-12-19T02:15:31.246Z,40.96
2023-12-19T02:17:59.515Z,40.91
2023-12-19T02:20:27.793Z,40.91
2023-12-19T02:22:57.329Z,40.84
2023-12-19T02:25:25.479Z,40.87
2023-12-19T02:27:53.638Z,40.68
2023-12-19T02:30:21.840Z,40.86
2023-12-19T02:32:49.962Z,40.72
2023-12-19T02:35:18.319Z,40.71
2023-12-19T02:37:46.431Z,40.93
2023-12-19T02:40:16.230Z,40.79
2023-12-19T02:42:44.736Z,40.88
2023-12-19T02:45:13.319Z,40.95
2023-12-19T02:47:41.629Z,40.94
2023-12-19T02:50:10.109Z,41.08
2023-12-19T02:52:38.353Z,40.99
2023-12-19T02:55:07.491Z,41.00
2023-12-19T02:57:37.209Z,41.04
2023-12-19T03:00:07.111Z,40.89
2023-12-19T03:02:35.309Z,40.87
2023-12-19T03:05:03.680Z,40.87
2023-12-19T03:07:34.004Z,40.86
2023-12-19T03:10:07.084Z,40.98
2023-12-19T03:12:37.336Z,40.95
2023-12-19T03:15:07.030Z,40.75
2023-12-19T03:17:35.329Z,40.85
2023-12-19T03:20:03.540Z,40.94
2023-12-19T03:22:31.682Z,40.97
2023-12-19T03:24:59.874Z,40.98
2023-12-19T03:27:44.708Z,40.99
2023-12-19T03:30:13.788Z,40.87
2023-12-19T03:32:42.172Z,40.77
2023-12-19T03:35:11.838Z,40.93
2023-12-19T03:37:40.348Z,40.95
2023-12-19T03:40:10.768Z,40.96
2023-12-19T03:42:40.160Z,40.82
2023-12-19T03:45:10.903Z,40.91
2023-12-19T03:47:39.619Z,40.84
2023-12-19T03:50:08.865Z,40.97
2023-12-19T03:52:37.005Z,40.85
2023-12-19T03:55:05.941Z,40.98
2023-12-19T03:57:35.992Z,40.97
2023-12-19T04:00:05.279Z,41.02
2023-12-19T04:02:34.915Z,41.05
2023-12-19T04:05:03.160Z,41.03
2023-12-19T04:07:31.379Z,40.97
2023-12-19T04:10:00.246Z,40.91
2023-12-19T04:12:28.804Z,40.88
2023-12-19T04:14:56.978Z,40.91
2023-12-19T04:17:25.366Z,40.96
2023-12-19T04:19:55.807Z,41.01
2023-12-19T04:22:24.126Z,40.90
2023-12-19T04:24:52.402Z,41.13
2023-12-19T04:27:20.647Z,40.92
2023-12-19T04:29:48.852Z,40.87
2023-12-19T04:32:17.063Z,40.96
2023-12-19T04:34:45.310Z,41.01
2023-12-19T04:37:14.930Z,41.04
2023-12-19T04:39:43.143Z,41.03
2023-12-19T04:42:13.786Z,40.94
2023-12-19T04:44:42.017Z,41.08
2023-12-19T04:47:10.135Z,40.95
2023-12-19T04:49:38.845Z,40.95
2023-12-19T04:52:07.219Z,40.97
2023-12-19T04:54:37.127Z,40.83
2023-12-19T04:57:06.900Z,40.87
2023-12-19T04:59:35.214Z,40.92
2023-12-19T05:02:03.763Z,40.85
2023-12-19T05:04:31.976Z,41.05
2023-12-19T05:07:00.487Z,40.97
2023-12-19T05:09:28.758Z,40.98
2023-12-19T05:11:58.325Z,40.96
2023-12-19T05:14:26.642Z,40.95
2023-12-19T05:16:54.794Z,40.95
2023-12-19T05:19:23.114Z,41.07
2023-12-19T05:21:51.348Z,41.03
2023-12-19T05:24:20.564Z,40.99
2023-12-19T05:26:48.679Z,41.00
2023-12-19T05:29:18.234Z,41.00
2023-12-19T05:31:46.421Z,40.98
2023-12-19T05:34:14.750Z,40.92
2023-12-19T05:36:50.421Z,41.02
2023-12-19T05:39:19.291Z,40.95
2023-12-19T05:41:47.486Z,41.03
2023-12-19T05:44:17.810Z,41.01
2023-12-19T05:46:46.026Z,40.83
2023-12-19T05:49:17.345Z,41.10
2023-12-19T05:51:45.646Z,41.04
2023-12-19T05:54:13.801Z,41.00
2023-12-19T05:56:42.009Z,40.92
2023-12-19T05:59:11.183Z,41.06
2023-12-19T06:01:45.289Z,41.07
2023-12-19T06:04:13.788Z,40.94
2023-12-19T06:06:45.472Z,41.05
2023-12-19T06:09:14.278Z,40.85
2023-12-19T06:11:42.571Z,41.14
2023-12-19T06:14:10.793Z,41.09
2023-12-19T06:16:38.999Z,41.06
2023-12-19T06:19:08.720Z,40.98
2023-12-19T06:21:36.940Z,41.03
2023-12-19T06:24:05.565Z,41.08
2023-12-19T06:26:33.808Z,41.06
2023-12-19T06:29:02.315Z,41.06
2023-12-19T06:31:30.644Z,41.10
2023-12-19T06:33:59.047Z,41.05
2023-12-19T06:36:34.574Z,41.05
2023-12-19T06:39:02.953Z,40.99
2023-12-19T06:41:31.269Z,41.11
2023-12-19T06:43:59.509Z,41.10
2023-12-19T06:46:27.745Z,41.10
2023-12-19T06:48:56.150Z,41.07
2023-12-19T06:51:25.777Z,41.04
2023-12-19T06:53:57.606Z,41.12
2023-12-19T06:56:28.655Z,41.01
2023-12-19T06:58:57.020Z,41.06
2023-12-19T07:01:25.965Z,40.92
2023-12-19T07:03:54.333Z,40.98
2023-12-19T07:06:22.703Z,41.12
2023-12-19T07:08:53.322Z,41.29
2023-12-19T07:11:23.430Z,41.05
2023-12-19T07:13:51.706Z,40.97
2023-12-19T07:16:20.511Z,40.92
2023-12-19T07:18:49.133Z,41.07
2023-12-19T07:21:22.005Z,40.95
2023-12-19T07:23:50.153Z,41.19
2023-12-19T07:26:31.643Z,40.93
2023-12-19T07:29:00.317Z,40.93
2023-12-19T07:31:29.182Z,40.98
2023-12-19T07:33:59.070Z,40.84
2023-12-19T07:36:27.521Z,40.95
2023-12-19T07:38:55.681Z,40.83
2023-12-19T07:41:24.370Z,40.79
2023-12-19T07:43:53.968Z,40.73
2023-12-19T07:46:22.190Z,40.85
2023-12-19T07:48:50.577Z,40.83
2023-12-19T07:51:18.954Z,40.70
2023-12-19T07:53:48.003Z,40.80
2023-12-19T07:56:16.193Z,40.79
2023-12-19T07:58:44.713Z,40.85
2023-12-19T08:01:15.014Z,40.65
2023-12-19T08:03:44.041Z,40.69
2023-12-19T08:06:12.477Z,40.87
2023-12-19T08:08:40.670Z,40.67
2023-12-19T08:11:09.927Z,40.47
2023-12-19T08:13:38.377Z,40.60
2023-12-19T08:16:07.557Z,40.61
2023-12-19T08:18:37.910Z,40.45
2023-12-19T08:21:06.594Z,40.59
2023-12-19T08:23:34.818Z,40.67
2023-12-19T08:26:03.927Z,40.51
2023-12-19T08:28:32.036Z,40.42
2023-12-19T08:31:00.490Z,40.61
2023-12-19T08:33:28.817Z,40.44
2023-12-19T08:35:58.373Z,40.47
2023-12-19T08:38:26.507Z,40.43
2023-12-19T08:40:54.633Z,40.49
2023-12-19T08:43:23.652Z,40.28
2023-12-19T08:45:52.080Z,40.21
2023-12-19T08:48:21.268Z,40.33
2023-12-19T08:50:49.650Z,40.39
2023-12-19T08:53:20.251Z,40.34
2023-12-19T08:55:48.483Z,40.45
2023-12-19T08:58:16.597Z,40.39
2023-12-19T09:00:44.879Z,40.38
2023-12-19T09:03:13.052Z,40.32
2023-12-19T09:05:41.173Z,40.16
2023-12-19T09:08:09.340Z,40.35
2023-12-19T09:10:39.008Z,40.27
2023-12-19T09:13:07.465Z,40.24
2023-12-19T09:15:36.476Z,40.23
2023-12-19T09:18:05.275Z,40.30
2023-12-19T09:20:33.680Z,40.22
2023-12-19T09:23:02.008Z,40.25
2023-12-19T09:25:30.495Z,40.16
2023-12-19T09:28:00.063Z,40.20
2023-12-19T09:30:28.437Z,40.12
2023-12-19T09:32:56.824Z,40.08
2023-12-19T09:35:25.027Z,40.10
2023-12-19T09:37:53.162Z,40.13
2023-12-19T09:40:28.348Z,40.16
2023-12-19T09:42:56.724Z,40.12
2023-12-19T09:45:26.449Z,40.11
2023-12-19T09:48:00.629Z,39.99
2023-12-19T09:50:29.066Z,39.88
2023-12-19T09:52:57.474Z,40.02
2023-12-19T09:55:26.769Z,40.01
2023-12-19T09:57:55.009Z,39.95
2023-12-19T10:00:23.756Z,39.92
2023-12-19T10:02:55.152Z,39.94
2023-12-19T10:05:23.333Z,39.91
2023-12-19T10:07:51.627Z,39.80
2023-12-19T10:10:19.996Z,39.84
2023-12-19T10:12:57.000Z,39.70
2023-12-19T10:15:27.318Z,39.69
2023-12-19T10:18:12.919Z,39.68
2023-12-19T10:20:42.111Z,39.72
2023-12-19T10:23:10.766Z,39.67
2023-12-19T10:25:45.365Z,39.44
2023-12-19T10:28:16.100Z,39.52
2023-12-19T10:30:46.130Z,39.37
2023-12-19T10:33:16.833Z,39.36
2023-12-19T10:35:46.413Z,39.33
2023-12-19T10:38:14.930Z,39.26
2023-12-19T10:40:43.208Z,39.17
2023-12-19T10:43:11.683Z,39.05
2023-12-19T10:45:40.187Z,39.10
2023-12-19T10:48:09.492Z,39.07
2023-12-19T10:50:39.388Z,39.04
2023-12-19T10:53:07.824Z,39.09
2023-12-19T10:55:39.002Z,39.06
2023-12-19T10:58:07.525Z,38.98
2023-12-19T11:00:36.375Z,38.86
2023-12-19T11:03:09.086Z,38.87
2023-12-19T11:05:42.594Z,38.91
2023-12-19T11:08:13.597Z,38.94
2023-12-19T11:10:42.030Z,38.83
2023-12-19T11:13:10.309Z,38.84
2023-12-19T11:15:40.919Z,38.77
2023-12-19T11:18:18.299Z,38.77
2023-12-19T11:20:54.368Z,38.65
2023-12-19T11:23:27.475Z,38.67
2023-12-19T11:25:57.133Z,38.69
2023-12-19T11:28:27.318Z,38.72
2023-12-19T11:30:55.507Z,38.60
2023-12-19T11:33:30.443Z,38.65
2023-12-19T11:36:11.598Z,38.57
2023-12-19T11:38:39.773Z,38.63
2023-12-19T11:41:07.964Z,38.50
2023-12-19T11:43:53.971Z,38.40
2023-12-19T11:46:22.189Z,38.49
2023-12-19T11:48:51.117Z,38.50
2023-12-19T11:51:51.688Z,38.42
2023-12-19T11:54:20.599Z,38.44
2023-12-19T11:56:58.664Z,38.57
2023-12-19T11:59:27.003Z,38.50
2023-12-19T12:01:55.646Z,38.40
2023-12-19T12:04:24.099Z,38.34
2023-12-19T12:06:58.386Z,38.41
2023-12-19T12:09:26.714Z,38.51
2023-12-19T12:11:55.476Z,38.43
2023-12-19T12:14:23.977Z,38.41
2023-12-19T12:16:52.875Z,38.36
2023-12-19T12:19:25.023Z,38.55
2023-12-19T12:21:56.086Z,38.45
2023-12-19T12:24:32.245Z,38.34
2023-12-19T12:27:12.178Z,38.25
2023-12-19T12:29:40.783Z,38.39
2023-12-19T12:32:09.225Z,38.44
2023-12-19T12:34:37.491Z,38.37
2023-12-19T12:37:07.315Z,38.37
2023-12-19T12:39:36.425Z,38.40
2023-12-19T12:42:05.067Z,38.35
2023-12-19T12:44:33.255Z,38.41
2023-12-19T12:47:06.593Z,38.40
2023-12-19T12:49:35.218Z,38.44
2023-12-19T12:52:05.192Z,38.34
2023-12-19T12:54:34.781Z,38.35
2023-12-19T12:57:03.092Z,38.38
2023-12-19T12:59:31.250Z,38.46
2023-12-19T13:01:59.626Z,38.42
2023-12-19T13:04:27.788Z,38.50
2023-12-19T13:06:56.209Z,38.47
2023-12-19T13:09:24.641Z,38.66
2023-12-19T13:11:55.508Z,38.48
2023-12-19T13:14:24.684Z,38.48
2023-12-19T13:16:52.838Z,38.62
2023-12-19T13:19:22.425Z,38.49
2023-12-19T13:21:50.708Z,38.67
2023-12-19T13:24:19.815Z,38.55
2023-12-19T13:26:48.084Z,38.59
2023-12-19T13:29:17.762Z,38.58
2023-12-19T13:31:46.657Z,38.77
2023-12-19T13:34:15.017Z,38.54
2023-12-19T13:36:44.627Z,38.47
2023-12-19T13:39:13.986Z,38.55
2023-12-19T13:41:42.678Z,38.50
2023-12-19T13:44:11.065Z,38.44
2023-12-19T13:46:41.365Z,38.50
2023-12-19T13:49:10.743Z,38.53
2023-12-19T13:51:38.970Z,38.44
2023-12-19T13:54:07.383Z,38.42
2023-12-19T13:56:35.604Z,38.47
2023-12-19T13:59:06.699Z,38.59
2023-12-19T14:01:35.009Z,38.54
2023-12-19T14:04:04.722Z,38.46
2023-12-19T14:06:32.895Z,38.53
2023-12-19T14:09:01.086Z,38.31
2023-12-19T14:11:29.205Z,38.55
2023-12-19T14:13:57.910Z,38.49
2023-12-19T14:16:27.369Z,38.60
2023-12-19T14:18:55.797Z,38.58
2023-12-19T14:21:25.547Z,38.61
2023-12-19T14:23:53.655Z,38.69
2023-12-19T14:26:21.909Z,38.67
2023-12-19T14:28:50.017Z,38.63
2023-12-19T14:31:18.860Z,38.77
2023-12-19T14:33:47.571Z,38.69
2023-12-19T14:36:17.115Z,38.71
2023-12-19T14:38:47.083Z,38.67
2023-12-19T14:41:15.727Z,38.89
2023-12-19T14:43:44.580Z,38.78
2023-12-19T14:46:12.916Z,38.73
2023-12-19T14:48:41.224Z,38.80
2023-12-19T14:51:09.925Z,38.73
2023-12-19T14:53:38.211Z,38.76
2023-12-19T14:56:09.868Z,38.84
2023-12-19T14:58:38.386Z,38.77
2023-12-19T15:01:06.961Z,38.83
2023-12-19T15:03:35.364Z,39.03
2023-12-19T15:06:04.307Z,38.97
2023-12-19T15:08:32.986Z,38.95
2023-12-19T15:11:01.337Z,38.92
2023-12-19T15:13:31.097Z,38.89
2023-12-19T15:15:59.335Z,39.01
2023-12-19T15:18:33.823Z,39.00
2023-12-19T15:21:07.513Z,38.97
2023-12-19T15:23:35.706Z,39.11
2023-12-19T15:26:03.907Z,39.11
2023-12-19T15:28:34.066Z,39.06
2023-12-19T15:31:03.034Z,38.94
2023-12-19T15:33:31.359Z,39.04
2023-12-19T15:35:59.826Z,39.18
2023-12-19T15:38:29.299Z,39.13
2023-12-19T15:40:59.227Z,39.16
2023-12-19T15:43:37.571Z,39.19
2023-12-19T15:46:11.164Z,39.12
2023-12-19T15:48:39.500Z,39.23
2023-12-19T15:51:07.710Z,39.15
2023-12-19T15:53:36.007Z,39.24
2023-12-19T15:56:04.299Z,39.21
2023-12-19T15:58:33.627Z,39.15
2023-12-19T16:01:02.783Z,39.22
2023-12-19T16:03:32.449Z,39.20
2023-12-19T16:06:01.832Z,39.18
2023-12-19T16:08:30.434Z,39.23
2023-12-19T16:10:58.659Z,39.26
2023-12-19T16:13:26.852Z,39.19
2023-12-19T16:15:55.585Z,39.30
2023-12-19T16:18:26.487Z,39.24
2023-12-19T16:20:56.172Z,39.34
2023-12-19T16:23:24.327Z,39.36
2023-12-19T16:25:56.207Z,39.26
2023-12-19T16:28:24.477Z,39.29
2023-12-19T16:30:52.699Z,39.34
2023-12-19T16:33:22.558Z,39.31
2023-12-19T16:35:52.089Z,39.29
2023-12-19T16:38:21.676Z,39.35
2023-12-19T16:40:50.923Z,39.41
2023-12-19T16:43:21.324Z,39.34
2023-12-19T16:45:49.558Z,39.39
2023-12-19T16:48:17.707Z,39.43
2023-12-19T16:50:46.166Z,39.10
2023-12-19T16:53:14.549Z,39.38
2023-12-19T16:55:45.047Z,39.51
2023-12-19T16:58:13.656Z,39.38
2023-12-19T17:00:41.995Z,39.41
2023-12-19T17:03:10.142Z,39.37
2023-12-19T17:05:38.624Z,39.36
2023-12-19T17:08:07.278Z,39.29
2023-12-19T17:10:35.405Z,39.40
2023-12-19T17:13:05.766Z,39.37
2023-12-19T17:15:34.011Z,39.42
2023-12-19T17:18:02.179Z,39.45
2023-12-19T17:20:30.313Z,39.45
2023-12-19T17:22:58.489Z,39.40
2023-12-19T17:25:26.738Z,39.39
2023-12-19T17:27:55.082Z,39.41
2023-12-19T17:30:24.700Z,39.46
2023-12-19T17:32:52.925Z,39.50
2023-12-19T17:35:21.379Z,39.42
2023-12-19T17:37:49.536Z,39.40
2023-12-19T17:40:18.581Z,39.48
2023-12-19T17:42:47.215Z,39.44
2023-12-19T17:45:15.566Z,39.44
2023-12-19T17:47:46.134Z,39.53
2023-12-19T17:50:14.659Z,39.40
2023-12-19T17:52:43.337Z,39.55
2023-12-19T17:55:11.616Z,39.51
2023-12-19T17:57:39.776Z,39.61
2023-12-19T18:00:10.367Z,39.50
2023-12-19T18:02:38.533Z,39.45
2023-12-19T18:05:09.012Z,39.58
2023-12-19T18:07:37.319Z,39.48
2023-12-19T18:10:06.272Z,39.51
2023-12-19T18:12:35.243Z,39.50
2023-12-19T18:15:03.415Z,39.56
2023-12-19T18:17:31.603Z,39.47
2023-12-19T18:19:59.900Z,39.44
2023-12-19T18:22:29.719Z,39.42
2023-12-19T18:24:58.928Z,39.57
2023-12-19T18:27:27.173Z,39.51
2023-12-19T18:29:55.361Z,39.61
2023-12-19T18:32:24.375Z,39.49
2023-12-19T18:34:52.630Z,39.59
2023-12-19T18:37:21.065Z,39.53
2023-12-19T18:39:50.708Z,39.47
2023-12-19T18:42:18.984Z,39.58
2023-12-19T18:44:47.273Z,39.69
2023-12-19T18:47:15.486Z,39.53
2023-12-19T18:49:44.403Z,39.54
2023-12-19T18:52:12.690Z,39.43
2023-12-19T18:54:40.926Z,39.60
2023-12-19T18:57:10.597Z,39.63
2023-12-19T18:59:38.854Z,39.60
2023-12-19T19:02:08.145Z,39.55
2023-12-19T19:04:36.497Z,39.68
2023-12-19T19:07:05.555Z,39.61
2023-12-19T19:09:34.010Z,39.56
2023-12-19T19:12:02.234Z,39.69
2023-12-19T19:14:31.800Z,39.70
2023-12-19T19:16:59.977Z,39.65
2023-12-19T19:19:28.279Z,39.60
2023-12-19T19:21:56.779Z,39.67
2023-12-19T19:24:25.033Z,39.62
2023-12-19T19:26:54.846Z,39.64
2023-12-19T19:29:24.163Z,39.52
2023-12-19T19:31:53.843Z,39.61
2023-12-19T19:34:22.140Z,39.57
2023-12-19T19:36:51.125Z,39.67
2023-12-19T19:39:19.927Z,39.61
2023-12-19T19:41:49.311Z,39.75
2023-12-19T19:44:17.598Z,39.61
2023-12-19T19:46:45.697Z,39.66
2023-12-19T19:49:15.855Z,39.62
2023-12-19T19:51:45.346Z,39.78
2023-12-19T19:54:13.667Z,39.58
2023-12-19T19:56:41.845Z,39.63
2023-12-19T19:59:11.453Z,39.60
2023-12-19T20:01:40.462Z,39.58
2023-12-19T20:04:08.786Z,39.74
2023-12-19T20:06:38.498Z,39.62
2023-12-19T20:09:06.725Z,39.70
2023-12-19T20:11:34.930Z,39.75
2023-12-19T20:14:03.733Z,39.61
2023-12-19T20:16:34.115Z,39.57
2023-12-19T20:19:02.444Z,39.65
2023-12-19T20:21:31.582Z,39.70
2023-12-19T20:24:05.558Z,39.72
2023-12-19T20:26:34.005Z,39.65
2023-12-19T20:29:02.959Z,39.66
2023-12-19T20:31:31.242Z,39.67
2023-12-19T20:33:59.620Z,39.80
2023-12-19T20:36:28.067Z,39.68
2023-12-19T20:38:56.209Z,39.65
2023-12-19T20:41:26.085Z,39.67
2023-12-19T20:43:54.431Z,39.71
2023-12-19T20:46:22.685Z,39.74
2023-12-19T20:48:50.980Z,39.65
2023-12-19T20:51:19.365Z,39.77
2023-12-19T20:53:47.642Z,39.72
2023-12-19T20:56:16.761Z,39.83
2023-12-19T20:58:46.459Z,39.70
2023-12-19T21:01:14.822Z,39.79
2023-12-19T21:03:44.876Z,39.73
2023-12-19T21:06:13.101Z,39.75
2023-12-19T21:08:41.648Z,39.72
2023-12-19T21:11:09.803Z,39.78
2023-12-19T21:13:37.997Z,39.76
2023-12-19T21:16:07.997Z,39.86
2023-12-19T21:18:37.836Z,39.80
2023-12-19T21:21:09.344Z,39.86
2023-12-19T21:23:37.565Z,39.71
2023-12-19T21:26:04.784Z,39.85
2023-12-19T21:28:33.652Z,39.83
2023-12-19T21:31:02.140Z,39.81
2023-12-19T21:33:31.984Z,39.77
2023-12-19T21:35:59.279Z,39.79
2023-12-19T21:38:27.462Z,39.76
2023-12-19T21:40:55.799Z,39.76
2023-12-19T21:43:24.002Z,39.81
2023-12-19T21:45:52.577Z,39.79
2023-12-19T21:48:20.948Z,39.88
2023-12-19T21:50:50.695Z,39.99
2023-12-19T21:53:18.884Z,39.75
2023-12-19T21:55:46.959Z,39.78
2023-12-19T21:58:15.152Z,39.91
2023-12-19T22:00:43.985Z,39.91
2023-12-19T22:03:12.196Z,39.91
2023-12-19T22:05:42.512Z,39.84
2023-12-19T22:08:12.085Z,39.76
2023-12-19T22:10:40.329Z,39.91
2023-12-19T22:13:08.578Z,39.99
2023-12-19T22:15:36.759Z,39.91
2023-12-19T22:18:05.321Z,39.85
2023-12-19T22:20:35.787Z,39.81
2023-12-19T22:23:03.986Z,39.94
2023-12-19T22:25:33.505Z,39.75
2023-12-19T22:28:01.709Z,39.89
2023-12-19T22:30:29.912Z,39.93
2023-12-19T22:32:58.195Z,39.83
2023-12-19T22:35:26.355Z,39.92
2023-12-19T22:37:54.987Z,39.95
2023-12-19T22:40:24.627Z,39.95
2023-12-19T22:42:54.533Z,39.88
2023-12-19T22:45:22.652Z,39.95
2023-12-19T22:47:50.862Z,39.84
2023-12-19T22:50:19.256Z,39.94
2023-12-19T22:52:49.156Z,40.04
2023-12-19T22:55:17.578Z,39.98
2023-12-19T22:57:46.672Z,39.97
2023-12-19T23:00:18.855Z,39.92
2023-12-19T23:02:47.159Z,40.25
2023-12-19T23:05:15.472Z,39.99
2023-12-19T23:07:43.762Z,39.90
2023-12-19T23:10:14.929Z,39.93
2023-12-19T23:12:43.581Z,39.93
2023-12-19T23:15:11.991Z,40.05
2023-12-19T23:17:41.627Z,39.99
2023-12-19T23:20:11.197Z,40.11
2023-12-19T23:22:40.989Z,39.97
2023-12-19T23:25:09.764Z,40.01
2023-12-19T23:27:37.909Z,40.01
2023-12-19T23:30:07.237Z,40.11
2023-12-19T23:32:35.674Z,40.03
2023-12-19T23:35:05.665Z,39.89
2023-12-19T23:37:33.833Z,39.97
2023-12-19T23:40:02.117Z,39.97
2023-12-19T23:42:30.330Z,40.02
2023-12-19T23:44:58.661Z,40.11
2023-12-19T23:47:26.870Z,39.97
2023-12-19T23:49:55.477Z,40.04
2023-12-19T23:52:25.126Z,40.00
2023-12-19T23:54:53.340Z,40.16
2023-12-19T23:57:21.667Z,40.08
2023-12-19T23:59:49.855Z,40.20
